Herbert J Plaisance — WDE6917 — position and weather

sailwx.info

Track history (hours):
 
Tides and Currents Weather Stations Pressure Air Temp Water Temp Dewpoint Dewpoint Depression Visibility Wind Speed Wind Dir Waves Ship Positions

Herbert J Plaisance

Owner: S & B Marine LLC, Harvey, LA. More information available from US FCC via Universal Licensing System and Coast Guard Vessel Documentation Center.

Last reported at 2014-Aug-25 10:19 UTC. Time now 2014-Nov-01 09:09 UTC.
Position N 30°16' W 091°07'.
Warning: this ship's position is months out of date.

Length 20 m; draft 3 m.

Type: Towing. MMSI: 367386576.

Date/timePositionNaut miles runAvg speedWind from/ knotsBaromVisibWave heightAir tempDewpointWater temp
2014-Aug-25 10:19N 30°16' W 091°07'3 3.2
2014-Aug-25 09:30N 30°14' W 091°09'3 2.9
2014-Aug-25 08:31N 30°11' W 091°09'7 2.3
2014-Aug-25 05:33N 30°08' W 091°02'3 3.1
2014-Aug-25 04:32N 30°06' W 090°58'11 2.7
2014-Aug-25 00:29N 29°59' W 090°49'4 4.0
2014-Aug-24 23:33N 30°01' W 090°45'4 4.0
2014-Aug-24 22:33N 30°02' W 090°41'4 3.7
2014-Aug-24 21:33N 30°02' W 090°37'4 3.9
2014-Aug-24 20:33N 30°03' W 090°32'3 3.5
2014-Aug-24 19:33N 30°02' W 090°28'3 3.3
2014-Aug-24 18:33N 29°60' W 090°26'4 3.9
2014-Aug-24 17:33N 29°57' W 090°23'  
Track history (hours):
 
Tides and Currents Weather Stations Pressure Air Temp Water Temp Dewpoint Dewpoint Depression Visibility Wind Speed Wind Dir Waves Ship Positions

Herbert J Plaisance

Owner: S & B Marine LLC, Harvey, LA. More information available from US FCC via Universal Licensing System and Coast Guard Vessel Documentation Center.

Last reported at 2014-Aug-25 10:19 UTC. Time now 2014-Nov-01 09:09 UTC.
Position N 30°16' W 091°07'.
Warning: this ship's position is months out of date.

Length 20 m; draft 3 m.

Type: Towing. MMSI: 367386576.

Date/timePositionNaut miles runAvg speedWind from/ knotsBaromVisibWave heightAir tempDewpointWater temp
2014-Aug-25 10:19N 30°16' W 091°07'3 3.2
2014-Aug-25 09:30N 30°14' W 091°09'3 2.9
2014-Aug-25 08:31N 30°11' W 091°09'7 2.3
2014-Aug-25 05:33N 30°08' W 091°02'3 3.1
2014-Aug-25 04:32N 30°06' W 090°58'11 2.7
2014-Aug-25 00:29N 29°59' W 090°49'4 4.0
2014-Aug-24 23:33N 30°01' W 090°45'4 4.0
2014-Aug-24 22:33N 30°02' W 090°41'4 3.7
2014-Aug-24 21:33N 30°02' W 090°37'4 3.9
2014-Aug-24 20:33N 30°03' W 090°32'3 3.5
2014-Aug-24 19:33N 30°02' W 090°28'3 3.3
2014-Aug-24 18:33N 29°60' W 090°26'4 3.9
2014-Aug-24 17:33N 29°57' W 090°23'  

Dump ship's entire track history